Time;durP1;ratioP1;P1;durP2;ratioP2;P2;SDS_P1;SDS_P2;PMS_P1;PMS_P2;Temp;Humidity;BMP_temperature;BMP_pressure;BME280_temperature;BME280_humidity;BME280_pressure;Samples;Min_cycle;Max_cycle;Signal;HPM_P1;HPM_P2
2020/12/08 00:00:05;;;;;;;12.77;9.80;;;2.60;99.90;;;;;;4964364;28;20435;-76
2020/12/08 00:02:32;;;;;;;13.13;9.27;;;2.60;99.90;;;;;;4972461;28;20461;-77
2020/12/08 00:04:58;;;;;;;12.50;9.67;;;2.70;99.90;;;;;;4971442;28;21014;-76
2020/12/08 00:07:25;;;;;;;12.83;9.70;;;2.70;99.90;;;;;;4972590;28;20481;-76
2020/12/08 00:09:51;;;;;;;11.40;9.30;;;2.70;99.90;;;;;;4995008;28;20504;-76
2020/12/08 00:12:21;;;;;;;9.33;8.10;;;2.70;99.90;;;;;;4976646;28;20485;-76
2020/12/08 00:14:48;;;;;;;11.53;9.33;;;2.60;99.90;;;;;;4972736;28;20454;-76
2020/12/08 00:17:14;;;;;;;13.73;9.87;;;2.60;99.90;;;;;;4971010;28;20523;-76
2020/12/08 00:19:40;;;;;;;10.90;9.00;;;2.70;99.90;;;;;;4983398;28;20471;-76
2020/12/08 00:22:08;;;;;;;11.50;9.33;;;2.70;99.90;;;;;;4965683;28;20812;-76
2020/12/08 00:24:35;;;;;;;13.90;9.90;;;2.80;99.90;;;;;;4971079;28;20443;-76
2020/12/08 00:27:01;;;;;;;10.97;8.93;;;2.80;99.90;;;;;;4972087;28;20449;-76
2020/12/08 00:29:27;;;;;;;12.70;9.77;;;2.80;99.90;;;;;;4970338;28;20981;-76
2020/12/08 00:31:54;;;;;;;11.97;9.17;;;2.90;99.90;;;;;;4972504;28;20457;-76
2020/12/08 00:34:20;;;;;;;14.40;10.47;;;2.90;99.90;;;;;;4970978;28;20447;-76
2020/12/08 00:36:46;;;;;;;15.03;10.40;;;2.90;99.90;;;;;;4972023;28;20503;-76
2020/12/08 00:39:13;;;;;;;15.47;10.63;;;3.00;99.90;;;;;;4983188;28;20470;-76
2020/12/08 00:41:40;;;;;;;14.00;9.97;;;3.00;99.90;;;;;;4972104;28;20437;-76
2020/12/08 00:44:06;;;;;;;19.93;18.03;;;3.00;99.90;;;;;;4983464;28;20503;-76
2020/12/08 00:46:33;;;;;;;20.63;18.93;;;3.00;99.90;;;;;;4981784;28;20513;-76
2020/12/08 00:48:59;;;;;;;20.27;18.53;;;3.10;99.90;;;;;;4976804;28;20576;-76
2020/12/08 00:51:25;;;;;;;18.87;17.27;;;3.10;99.90;;;;;;4985675;28;20517;-75
2020/12/08 00:53:52;;;;;;;19.70;17.90;;;3.10;99.90;;;;;;4972097;28;20827;-76
2020/12/08 00:56:18;;;;;;;19.93;18.03;;;3.10;99.90;;;;;;4984188;28;20787;-76
2020/12/08 00:58:51;;;;;;;19.23;17.33;;;3.10;99.90;;;;;;4982888;28;20476;-76
2020/12/08 01:01:18;;;;;;;18.67;16.97;;;3.10;99.90;;;;;;4981753;28;20469;-76
2020/12/08 01:03:45;;;;;;;19.63;17.63;;;3.10;99.90;;;;;;4974215;28;20930;-76
2020/12/08 01:06:13;;;;;;;19.40;17.50;;;3.10;99.90;;;;;;4982555;28;20457;-76
2020/12/08 01:08:43;;;;;;;19.33;17.53;;;3.10;99.90;;;;;;4983109;28;20491;-76
2020/12/08 01:11:09;;;;;;;20.43;18.50;;;3.00;99.90;;;;;;4980238;28;20461;-76
2020/12/08 01:13:38;;;;;;;18.80;17.13;;;3.10;99.90;;;;;;4983733;28;20455;-76
2020/12/08 01:16:12;;;;;;;18.83;17.10;;;3.00;99.90;;;;;;4981314;28;20474;-77
2020/12/08 01:18:38;;;;;;;21.43;19.30;;;3.00;99.90;;;;;;4982784;28;20534;-76
2020/12/08 01:21:05;;;;;;;20.67;18.67;;;3.00;99.90;;;;;;4976632;28;20538;-76
2020/12/08 01:23:32;;;;;;;20.57;18.57;;;3.00;99.90;;;;;;4982654;28;20462;-76
2020/12/08 01:26:00;;;;;;;19.70;17.60;;;2.90;99.90;;;;;;4975070;28;20954;-76
2020/12/08 01:28:27;;;;;;;19.90;17.93;;;2.90;99.90;;;;;;4980385;28;20587;-76
2020/12/08 01:30:55;;;;;;;22.57;20.53;;;2.80;99.90;;;;;;4973652;28;20456;-77
2020/12/08 01:33:22;;;;;;;24.40;22.07;;;2.80;99.90;;;;;;4982350;28;20456;-76
2020/12/08 01:35:48;;;;;;;23.47;21.27;;;2.80;99.90;;;;;;4971694;28;20433;-76
2020/12/08 01:38:14;;;;;;;23.67;21.43;;;2.80;99.90;;;;;;4982767;28;20498;-75
2020/12/08 01:40:41;;;;;;;21.60;19.60;;;2.70;99.90;;;;;;4983398;28;20469;-76
2020/12/08 01:43:08;;;;;;;19.87;18.07;;;2.70;99.90;;;;;;4975831;28;20446;-76
2020/12/08 01:45:37;;;;;;;19.07;17.07;;;2.60;99.90;;;;;;4982253;28;20452;-76
2020/12/08 01:48:03;;;;;;;19.67;17.77;;;2.50;99.90;;;;;;4974425;28;20489;-76
2020/12/08 01:50:32;;;;;;;19.63;17.73;;;2.40;99.90;;;;;;4980004;28;20445;-75
2020/12/08 01:52:59;;;;;;;21.03;18.93;;;2.30;99.90;;;;;;4972615;28;20450;-76
2020/12/08 01:55:25;;;;;;;16.33;14.17;;;2.30;99.90;;;;;;4982452;28;20445;-76
2020/12/08 01:57:53;;;;;;;18.93;15.87;;;2.30;99.90;;;;;;4986589;28;20566;-76
2020/12/08 02:00:25;;;;;;;18.90;17.00;;;2.30;99.90;;;;;;4984234;28;20452;-76
2020/12/08 02:02:52;;;;;;;19.20;16.60;;;2.20;99.90;;;;;;4973533;28;20452;-77
2020/12/08 02:05:29;;;;;;;19.30;17.37;;;2.20;99.90;;;;;;4973659;28;20961;-76
2020/12/08 02:07:56;;;;;;;17.67;15.80;;;2.20;99.90;;;;;;4989509;28;20481;-76
2020/12/08 02:10:22;;;;;;;18.67;16.77;;;2.10;99.90;;;;;;4988874;28;20453;-77
2020/12/08 02:12:50;;;;;;;19.67;17.67;;;2.10;99.90;;;;;;4989712;28;20487;-76
2020/12/08 02:15:20;;;;;;;18.90;17.20;;;2.20;99.90;;;;;;4989131;28;20476;-76
2020/12/08 02:20:18;;;;;;;20.07;18.00;;;2.20;99.90;;;;;;4944337;28;20453;-78
2020/12/08 02:22:44;;;;;;;22.57;20.00;;;2.20;99.90;;;;;;4916162;29;20462;-80
2020/12/08 02:25:12;;;;;;;24.10;19.03;;;2.10;99.90;;;;;;4916050;29;20462;-79
2020/12/08 02:27:39;;;;;;;19.30;16.30;;;2.20;99.90;;;;;;4916189;29;20482;-80
2020/12/08 02:30:09;;;;;;;20.83;18.73;;;2.10;99.90;;;;;;4934257;29;20463;-79
2020/12/08 02:32:35;;;;;;;20.00;17.90;;;2.10;99.90;;;;;;4950767;28;20465;-79
2020/12/08 02:35:03;;;;;;;19.77;17.77;;;2.10;99.90;;;;;;4954354;29;20452;-79
2020/12/08 02:37:31;;;;;;;18.70;16.70;;;2.10;99.90;;;;;;4970081;28;20451;-79
2020/12/08 02:39:57;;;;;;;19.77;17.10;;;2.10;99.90;;;;;;4953346;28;20816;-79
2020/12/08 02:42:23;;;;;;;18.30;16.47;;;2.10;99.90;;;;;;4955709;28;20490;-79
2020/12/08 02:44:50;;;;;;;17.77;15.97;;;2.20;99.90;;;;;;4954144;28;20535;-79
2020/12/08 02:47:16;;;;;;;20.07;18.07;;;2.20;99.90;;;;;;4953754;28;20838;-80
2020/12/08 02:49:43;;;;;;;18.07;16.37;;;2.20;99.90;;;;;;4953417;28;20895;-79
2020/12/08 02:52:10;;;;;;;19.40;17.40;;;2.20;99.90;;;;;;4969677;28;20970;-79
2020/12/08 02:54:42;;;;;;;20.43;18.23;;;2.20;99.90;;;;;;4953581;29;20972;-79
2020/12/08 02:57:08;;;;;;;20.90;18.83;;;2.10;99.90;;;;;;4969833;28;20451;-80
2020/12/08 02:59:37;;;;;;;21.13;18.93;;;2.10;99.90;;;;;;4953224;28;20476;-79
2020/12/08 03:02:05;;;;;;;22.00;19.80;;;2.10;99.90;;;;;;4953905;29;20510;-79
2020/12/08 03:04:38;;;;;;;22.70;20.13;;;2.10;99.90;;;;;;4953512;29;20452;-79
2020/12/08 03:07:07;;;;;;;24.70;20.57;;;2.10;99.90;;;;;;4933801;28;20837;-79
2020/12/08 03:09:34;;;;;;;21.70;19.60;;;2.10;99.90;;;;;;4934046;29;21014;-78
2020/12/08 03:12:05;;;;;;;22.73;20.27;;;2.10;99.90;;;;;;4934647;29;20487;-79
2020/12/08 03:14:31;;;;;;;20.57;18.47;;;2.10;99.90;;;;;;4934436;29;20518;-80
2020/12/08 03:16:58;;;;;;;21.93;19.70;;;2.00;99.90;;;;;;4934528;29;20910;-80
2020/12/08 03:19:28;;;;;;;22.00;19.80;;;2.00;99.90;;;;;;4956267;28;20478;-79
2020/12/08 03:21:54;;;;;;;23.87;21.03;;;2.00;99.90;;;;;;4974151;28;20434;-80
2020/12/08 03:24:32;;;;;;;24.17;21.57;;;1.90;99.90;;;;;;4971997;28;20529;-81
2020/12/08 03:26:58;;;;;;;23.40;20.90;;;1.90;99.90;;;;;;4988287;28;20465;-79
2020/12/08 03:29:26;;;;;;;24.23;21.60;;;1.90;99.90;;;;;;4971827;28;20568;-79
2020/12/08 03:31:53;;;;;;;24.23;21.63;;;1.80;99.90;;;;;;4972205;28;20532;-78
2020/12/08 03:34:20;;;;;;;24.53;21.27;;;1.70;99.90;;;;;;4973712;28;20439;-78
2020/12/08 03:36:47;;;;;;;23.63;21.33;;;1.70;99.90;;;;;;4972226;28;20469;-79
2020/12/08 03:39:16;;;;;;;23.53;21.13;;;1.70;99.90;;;;;;4971586;28;20477;-79
2020/12/08 03:41:43;;;;;;;23.43;21.07;;;1.60;99.90;;;;;;4971624;28;20452;-79
2020/12/08 03:44:11;;;;;;;23.93;21.50;;;1.60;99.90;;;;;;4972285;28;20532;-78
2020/12/08 03:46:38;;;;;;;24.37;21.83;;;1.60;99.90;;;;;;4972091;28;20473;-79
2020/12/08 03:49:06;;;;;;;24.03;21.30;;;1.70;99.90;;;;;;4970961;28;20863;-78
2020/12/08 03:51:34;;;;;;;23.37;20.87;;;1.60;99.90;;;;;;4970954;28;20833;-78
2020/12/08 03:54:07;;;;;;;23.50;21.00;;;1.50;99.90;;;;;;4971974;28;20454;-79
2020/12/08 03:56:39;;;;;;;24.37;21.80;;;1.50;99.90;;;;;;4971799;28;20456;-75
2020/12/08 03:59:08;;;;;;;23.60;21.10;;;1.50;99.90;;;;;;4970909;28;20470;-75
2020/12/08 04:01:34;;;;;;;25.57;22.77;;;1.50;99.90;;;;;;4971379;28;20450;-75
2020/12/08 04:04:02;;;;;;;26.67;22.93;;;1.50;99.90;;;;;;4972025;28;20487;-78
2020/12/08 04:06:31;;;;;;;24.70;22.30;;;1.50;99.90;;;;;;4973097;28;20545;-78
2020/12/08 04:08:57;;;;;;;24.00;21.60;;;1.50;99.90;;;;;;4971826;28;20491;-78
2020/12/08 04:11:32;;;;;;;26.20;22.43;;;1.50;99.90;;;;;;4971041;28;20950;-78
2020/12/08 04:13:59;;;;;;;24.17;21.53;;;1.50;99.90;;;;;;4970772;28;20536;-78
2020/12/08 04:16:26;;;;;;;25.20;22.43;;;1.50;99.90;;;;;;4971217;28;20484;-78
2020/12/08 04:18:54;;;;;;;23.90;21.33;;;1.50;99.90;;;;;;4969366;28;20470;-76
2020/12/08 04:21:23;;;;;;;24.83;22.10;;;1.60;99.90;;;;;;4969046;28;20438;-75
2020/12/08 04:23:51;;;;;;;24.90;22.30;;;1.60;99.90;;;;;;4968068;28;20450;-75
2020/12/08 04:26:17;;;;;;;23.87;21.37;;;1.60;99.90;;;;;;4972299;28;20437;-75
2020/12/08 04:28:47;;;;;;;27.83;22.70;;;1.60;99.90;;;;;;4970102;28;20481;-77
2020/12/08 04:31:16;;;;;;;26.73;23.07;;;1.60;99.90;;;;;;4970931;28;20974;-77
2020/12/08 04:33:43;;;;;;;23.70;21.20;;;1.60;99.90;;;;;;4972013;28;20437;-77
2020/12/08 04:36:14;;;;;;;26.23;23.37;;;1.60;99.90;;;;;;4971146;28;20446;-77
2020/12/08 04:38:42;;;;;;;24.73;22.23;;;1.60;99.90;;;;;;4971684;28;20854;-77
2020/12/08 04:41:09;;;;;;;25.43;22.20;;;1.60;99.90;;;;;;4972094;28;20504;-76
2020/12/08 04:43:38;;;;;;;26.30;23.33;;;1.60;99.90;;;;;;4972165;28;20966;-79
2020/12/08 04:46:05;;;;;;;24.27;21.87;;;1.60;99.90;;;;;;4972421;28;20441;-78
2020/12/08 04:48:32;;;;;;;26.40;23.37;;;1.60;99.90;;;;;;4968860;28;20484;-78
2020/12/08 04:50:58;;;;;;;25.90;23.13;;;1.60;99.90;;;;;;4971161;28;20450;-78
2020/12/08 04:53:24;;;;;;;25.07;22.57;;;1.60;99.90;;;;;;4972639;28;20442;-80
2020/12/08 04:55:52;;;;;;;23.60;21.30;;;1.60;99.90;;;;;;4972279;28;20803;-77
2020/12/08 04:58:19;;;;;;;21.90;19.80;;;1.60;99.90;;;;;;4970940;28;20463;-76
2020/12/08 05:00:45;;;;;;;23.87;21.43;;;1.60;99.90;;;;;;4972574;28;20425;-77
2020/12/08 05:03:11;;;;;;;24.80;22.30;;;1.60;99.90;;;;;;4972220;28;20788;-75
2020/12/08 05:05:39;;;;;;;24.83;22.37;;;1.50;99.90;;;;;;4971445;28;20529;-78
2020/12/08 05:08:13;;;;;;;27.27;23.40;;;1.60;99.90;;;;;;4971585;28;20483;-79
2020/12/08 05:10:40;;;;;;;27.73;24.90;;;1.60;99.90;;;;;;4971506;28;20444;-79
2020/12/08 05:13:08;;;;;;;26.70;23.83;;;1.60;99.90;;;;;;4971059;28;20508;-78
2020/12/08 05:15:34;;;;;;;26.97;23.87;;;1.60;99.90;;;;;;4971394;28;20512;-78
2020/12/08 05:18:08;;;;;;;26.30;23.50;;;1.60;99.90;;;;;;4972031;28;20520;-78
2020/12/08 05:20:35;;;;;;;26.37;23.60;;;1.60;99.90;;;;;;4964554;28;20540;-76
2020/12/08 05:23:01;;;;;;;26.83;24.03;;;1.60;99.90;;;;;;4992673;28;20524;-79
2020/12/08 05:25:30;;;;;;;26.03;23.23;;;1.60;99.90;;;;;;4975139;28;20457;-76
2020/12/08 05:27:58;;;;;;;27.53;24.53;;;1.60;99.90;;;;;;4991623;28;20973;-79
2020/12/08 05:30:26;;;;;;;28.63;25.10;;;1.60;99.90;;;;;;4992346;28;20444;-78
2020/12/08 05:32:52;;;;;;;25.60;22.80;;;1.60;99.90;;;;;;4979474;28;20506;-78
2020/12/08 05:35:21;;;;;;;26.47;23.57;;;1.60;99.90;;;;;;4986594;28;20968;-78
2020/12/08 05:37:48;;;;;;;26.43;23.80;;;1.60;99.90;;;;;;4959466;28;20445;-78
2020/12/08 05:40:16;;;;;;;26.73;23.57;;;1.60;99.90;;;;;;4989357;28;20497;-78
2020/12/08 05:42:45;;;;;;;29.23;25.07;;;1.60;99.90;;;;;;4986660;28;20445;-78
2020/12/08 05:45:14;;;;;;;27.37;24.50;;;1.60;99.90;;;;;;4975068;28;20504;-79
2020/12/08 05:47:48;;;;;;;27.30;23.73;;;1.60;99.90;;;;;;4976676;28;20445;-78
2020/12/08 05:50:15;;;;;;;28.40;25.00;;;1.60;99.90;;;;;;4974235;28;20494;-78
2020/12/08 05:52:47;;;;;;;28.80;24.57;;;1.60;99.90;;;;;;4995179;28;20448;-79
2020/12/08 05:55:15;;;;;;;30.47;25.13;;;1.70;99.90;;;;;;4994809;28;20449;-79
2020/12/08 05:57:42;;;;;;;28.20;25.20;;;1.70;99.90;;;;;;4968907;28;20445;-78
2020/12/08 06:00:21;;;;;;;28.97;24.50;;;1.70;99.90;;;;;;4971576;28;20467;-78
2020/12/08 06:02:48;;;;;;;28.33;24.83;;;1.70;99.90;;;;;;4995915;28;20434;-78
2020/12/08 06:05:25;;;;;;;27.93;24.20;;;1.60;99.90;;;;;;4977986;28;20550;-77
2020/12/08 06:07:52;;;;;;;27.30;24.37;;;1.60;99.90;;;;;;5012845;28;20472;-78
2020/12/08 06:10:18;;;;;;;29.47;24.90;;;1.70;99.90;;;;;;4983241;28;20988;-82
2020/12/08 06:12:55;;;;;;;28.03;24.30;;;1.60;99.90;;;;;;4969154;28;20803;-79
2020/12/08 06:15:24;;;;;;;27.73;24.77;;;1.60;99.90;;;;;;5002944;28;20445;-79
2020/12/08 06:17:51;;;;;;;28.73;24.67;;;1.60;99.90;;;;;;5000445;28;20849;-79
2020/12/08 06:20:18;;;;;;;28.43;25.20;;;1.50;99.90;;;;;;4991780;28;20448;-80
2020/12/08 06:22:54;;;;;;;29.33;25.17;;;1.50;99.90;;;;;;5000281;28;20440;-80
2020/12/08 06:25:20;;;;;;;26.07;23.47;;;1.50;99.90;;;;;;4969477;28;20485;-79
2020/12/08 06:27:46;;;;;;;24.20;21.67;;;1.40;99.90;;;;;;4993624;28;20435;-79
2020/12/08 06:30:13;;;;;;;25.87;23.27;;;1.40;99.90;;;;;;4994511;28;20455;-79
2020/12/08 06:32:42;;;;;;;29.80;23.90;;;1.30;99.90;;;;;;4981769;28;20876;-76
2020/12/08 06:35:11;;;;;;;30.13;25.27;;;1.30;99.90;;;;;;4975662;28;20444;-77
2020/12/08 06:37:45;;;;;;;26.43;23.70;;;1.20;99.90;;;;;;4994369;28;20941;-77
2020/12/08 06:40:13;;;;;;;25.53;22.77;;;1.20;99.90;;;;;;4975529;28;20997;-76
2020/12/08 06:42:40;;;;;;;25.27;22.53;;;1.10;99.90;;;;;;4993151;28;20449;-77
2020/12/08 06:45:08;;;;;;;28.60;23.73;;;1.10;99.90;;;;;;4994931;28;20439;-77
2020/12/08 06:47:34;;;;;;;26.33;23.63;;;1.00;99.90;;;;;;4993886;28;20482;-77
2020/12/08 06:50:01;;;;;;;26.57;23.20;;;1.00;99.90;;;;;;4991521;28;20468;-78
2020/12/08 06:52:28;;;;;;;25.50;22.80;;;0.80;99.90;;;;;;4993017;28;20441;-78
2020/12/08 06:54:58;;;;;;;29.90;24.93;;;0.80;99.90;;;;;;4994210;28;20487;-78
2020/12/08 06:57:24;;;;;;;26.33;23.53;;;0.70;99.90;;;;;;4992950;28;20452;-79
2020/12/08 07:00:00;;;;;;;27.77;23.37;;;0.70;99.90;;;;;;4993156;28;20532;-79
2020/12/08 07:02:28;;;;;;;26.67;23.80;;;0.70;99.90;;;;;;4993076;28;20432;-78
2020/12/08 07:04:56;;;;;;;29.20;24.77;;;0.70;99.90;;;;;;4993367;28;20433;-79
2020/12/08 07:07:23;;;;;;;31.50;26.13;;;0.70;99.90;;;;;;4994123;28;20443;-78
2020/12/08 07:09:50;;;;;;;29.37;25.17;;;0.70;99.90;;;;;;4993094;28;20507;-78
2020/12/08 07:12:16;;;;;;;31.70;25.13;;;0.70;99.90;;;;;;4994560;28;20432;-77
2020/12/08 07:14:44;;;;;;;30.50;26.53;;;0.70;99.90;;;;;;4993837;28;20449;-80
2020/12/08 07:17:10;;;;;;;31.13;26.30;;;0.70;99.90;;;;;;4992948;28;20441;-79
2020/12/08 07:19:36;;;;;;;35.67;26.53;;;0.70;99.90;;;;;;4996040;28;20472;-79
2020/12/08 07:22:08;;;;;;;32.80;26.20;;;0.70;99.90;;;;;;4994413;28;20445;-78
2020/12/08 07:24:42;;;;;;;30.37;25.00;;;0.80;99.90;;;;;;4992729;28;20958;-76
2020/12/08 07:27:11;;;;;;;29.43;24.67;;;0.80;99.90;;;;;;4992170;28;20440;-78
2020/12/08 07:29:39;;;;;;;29.53;25.37;;;0.80;99.90;;;;;;4991993;28;20481;-79
2020/12/08 07:32:06;;;;;;;31.33;25.63;;;0.80;99.90;;;;;;4992938;28;20503;-80
2020/12/08 07:34:32;;;;;;;30.93;25.53;;;0.70;99.90;;;;;;4976971;28;20874;-80
2020/12/08 07:36:58;;;;;;;27.47;24.50;;;0.80;99.90;;;;;;4975056;28;20437;-80
2020/12/08 07:39:28;;;;;;;32.90;25.93;;;0.80;99.90;;;;;;4975274;28;20469;-82
2020/12/08 07:42:02;;;;;;;34.10;27.07;;;0.90;99.90;;;;;;4975756;28;20447;-81
2020/12/08 07:44:31;;;;;;;28.57;24.83;;;0.90;99.90;;;;;;4992266;28;20603;-79
2020/12/08 07:46:57;;;;;;;30.73;24.77;;;1.00;99.90;;;;;;4976033;28;20445;-79
2020/12/08 07:49:23;;;;;;;28.87;24.60;;;1.00;99.90;;;;;;4991731;28;20488;-80
2020/12/08 07:51:51;;;;;;;31.47;25.63;;;1.00;99.90;;;;;;4992717;28;20442;-80
2020/12/08 07:54:18;;;;;;;30.87;26.83;;;1.00;99.90;;;;;;4975309;28;20456;-80
2020/12/08 07:56:44;;;;;;;33.87;27.00;;;1.00;99.90;;;;;;4976306;28;20595;-79
2020/12/08 07:59:10;;;;;;;31.93;26.77;;;1.00;99.90;;;;;;4975678;28;20461;-78
2020/12/08 08:01:41;;;;;;;29.23;25.43;;;1.00;99.90;;;;;;4992443;28;20429;-77
2020/12/08 08:04:08;;;;;;;29.00;25.10;;;1.00;99.90;;;;;;4974554;28;20445;-76
2020/12/08 08:06:34;;;;;;;31.83;26.43;;;1.00;99.90;;;;;;4975753;28;20507;-79
2020/12/08 08:09:05;;;;;;;31.77;27.43;;;1.00;99.90;;;;;;4990875;28;21005;-78
2020/12/08 08:11:31;;;;;;;32.97;26.13;;;1.10;99.90;;;;;;4979381;28;20456;-78
2020/12/08 08:13:57;;;;;;;32.00;27.57;;;1.20;99.90;;;;;;4991977;28;20849;-78
2020/12/08 08:16:24;;;;;;;32.50;27.30;;;1.30;99.90;;;;;;4991720;28;20507;-76
2020/12/08 08:18:51;;;;;;;33.03;27.90;;;1.60;99.90;;;;;;4997273;23;20520;-79
2020/12/08 08:21:18;;;;;;;34.97;27.43;;;1.80;99.90;;;;;;4975473;28;20450;-79
2020/12/08 08:23:45;;;;;;;32.70;27.67;;;2.10;99.90;;;;;;4994172;28;20808;-78
2020/12/08 08:26:11;;;;;;;32.27;27.73;;;2.30;99.90;;;;;;4993706;28;20435;-78
2020/12/08 08:28:38;;;;;;;30.80;25.93;;;2.40;99.90;;;;;;4991327;28;20487;-78
2020/12/08 08:31:04;;;;;;;30.87;25.57;;;2.50;99.90;;;;;;4969350;28;20872;-78
2020/12/08 08:33:30;;;;;;;28.17;23.70;;;2.60;99.90;;;;;;4956944;28;20440;-78
2020/12/08 08:35:58;;;;;;;31.47;28.07;;;2.60;99.90;;;;;;4938631;28;20873;-79
2020/12/08 08:38:26;;;;;;;26.77;23.97;;;2.90;99.90;;;;;;4965760;28;20480;-78
2020/12/08 08:40:53;;;;;;;28.30;23.90;;;3.10;99.90;;;;;;4937708;28;21034;-78
2020/12/08 08:43:19;;;;;;;26.43;23.53;;;3.30;99.90;;;;;;4937821;29;20449;-78
2020/12/08 08:45:45;;;;;;;24.33;21.77;;;3.30;99.90;;;;;;4939017;28;20524;-80
2020/12/08 08:48:12;;;;;;;25.67;22.87;;;3.40;99.90;;;;;;4956410;28;20479;-78
2020/12/08 08:50:38;;;;;;;26.03;23.33;;;3.60;99.90;;;;;;4973655;28;20503;-78
2020/12/08 08:53:05;;;;;;;26.27;23.43;;;3.70;99.90;;;;;;4974669;28;20433;-78
2020/12/08 08:55:31;;;;;;;28.40;23.67;;;3.60;99.90;;;;;;4973785;28;20823;-78
2020/12/08 08:57:57;;;;;;;27.30;23.77;;;3.50;99.90;;;;;;4940312;28;20451;-78
2020/12/08 09:00:24;;;;;;;28.53;24.03;;;3.40;99.90;;;;;;4937471;29;20466;-78
2020/12/08 09:02:50;;;;;;;25.33;22.30;;;3.40;99.90;;;;;;4954052;28;20446;-78
2020/12/08 09:05:16;;;;;;;25.90;23.07;;;3.40;99.90;;;;;;4953226;29;20505;-78
2020/12/08 09:07:42;;;;;;;25.73;22.80;;;3.50;99.90;;;;;;4950670;28;20619;-78
2020/12/08 09:10:09;;;;;;;25.20;22.50;;;3.50;99.90;;;;;;4953063;28;20534;-76
2020/12/08 09:12:36;;;;;;;25.90;23.10;;;3.50;99.90;;;;;;4951239;28;20452;-76
2020/12/08 09:15:04;;;;;;;26.33;23.50;;;3.50;99.90;;;;;;4970701;28;20829;-76
2020/12/08 09:17:30;;;;;;;26.83;23.93;;;3.50;99.90;;;;;;4971284;28;20432;-76
2020/12/08 09:19:57;;;;;;;26.27;23.13;;;3.40;99.90;;;;;;4953103;28;20487;-77
2020/12/08 09:22:23;;;;;;;28.43;23.60;;;3.30;99.90;;;;;;4953806;28;20455;-76
2020/12/08 09:24:50;;;;;;;27.03;23.67;;;3.30;99.90;;;;;;4953592;28;20502;-77
2020/12/08 09:27:17;;;;;;;28.27;23.67;;;3.30;99.90;;;;;;4949044;29;20490;-78
2020/12/08 09:29:43;;;;;;;27.73;24.17;;;3.30;99.90;;;;;;4969314;28;20534;-78
2020/12/08 09:32:10;;;;;;;29.90;24.93;;;3.20;99.90;;;;;;4976468;28;20446;-78
2020/12/08 09:34:37;;;;;;;32.47;24.77;;;3.10;99.90;;;;;;4944504;28;20828;-78
2020/12/08 09:37:03;;;;;;;27.63;23.93;;;3.10;99.90;;;;;;4948113;29;20517;-77
2020/12/08 09:39:30;;;;;;;27.83;24.37;;;3.10;99.90;;;;;;4965122;28;20569;-78
2020/12/08 09:41:57;;;;;;;25.13;21.87;;;3.00;99.90;;;;;;4956101;28;20449;-78
2020/12/08 09:44:25;;;;;;;29.57;24.23;;;3.00;99.90;;;;;;4973061;28;20445;-78
2020/12/08 09:46:52;;;;;;;30.10;24.03;;;3.00;99.90;;;;;;4937362;29;20974;-77
2020/12/08 09:49:19;;;;;;;29.53;24.30;;;3.00;99.90;;;;;;4962482;28;20481;-77
2020/12/08 09:51:46;;;;;;;29.90;24.40;;;2.90;99.90;;;;;;4939437;29;20442;-78
2020/12/08 09:54:12;;;;;;;27.03;23.03;;;2.90;99.90;;;;;;4962769;28;20449;-78
2020/12/08 09:56:38;;;;;;;27.93;22.97;;;3.00;99.90;;;;;;4954383;28;20607;-77
2020/12/08 09:59:06;;;;;;;28.70;24.47;;;3.00;99.90;;;;;;4952357;28;20521;-77
2020/12/08 10:01:34;;;;;;;27.40;24.43;;;3.00;99.90;;;;;;4955307;28;21061;-78
2020/12/08 10:04:01;;;;;;;27.27;24.00;;;3.10;99.90;;;;;;4944571;28;20453;-78
2020/12/08 10:06:28;;;;;;;28.33;23.53;;;3.10;99.90;;;;;;4967712;28;20468;-78
2020/12/08 10:08:55;;;;;;;27.57;23.10;;;3.20;99.90;;;;;;4971620;28;20492;-77
2020/12/08 10:11:21;;;;;;;27.13;23.73;;;3.20;99.90;;;;;;4972783;28;20512;-78
2020/12/08 10:13:48;;;;;;;25.17;22.47;;;3.20;99.90;;;;;;4937296;28;20557;-78
2020/12/08 10:16:18;;;;;;;26.90;23.77;;;3.20;99.90;;;;;;4962249;28;20448;-78
2020/12/08 10:18:45;;;;;;;24.63;21.73;;;3.30;99.90;;;;;;4974364;28;20468;-78
2020/12/08 10:21:12;;;;;;;25.13;22.47;;;3.30;99.90;;;;;;4958951;28;20491;-78
2020/12/08 10:23:38;;;;;;;28.10;22.67;;;3.40;99.90;;;;;;4976062;28;20607;-78
2020/12/08 10:26:05;;;;;;;30.43;24.27;;;3.40;99.90;;;;;;4958722;28;20953;-78
2020/12/08 10:28:31;;;;;;;25.67;22.93;;;3.50;99.90;;;;;;4975368;28;20481;-78
2020/12/08 10:30:57;;;;;;;27.47;22.37;;;3.60;99.90;;;;;;4975656;28;20510;-78
2020/12/08 10:33:23;;;;;;;27.17;24.37;;;3.60;99.90;;;;;;4975636;28;20510;-78
2020/12/08 10:35:50;;;;;;;29.90;24.53;;;3.60;99.90;;;;;;4975490;28;20447;-78
2020/12/08 10:38:18;;;;;;;26.20;23.13;;;3.60;99.90;;;;;;4975152;28;20440;-77
2020/12/08 10:40:44;;;;;;;28.23;24.00;;;3.60;99.90;;;;;;4973769;28;20426;-77
2020/12/08 10:43:10;;;;;;;24.93;22.33;;;3.60;99.90;;;;;;4973969;28;20485;-77
2020/12/08 10:45:37;;;;;;;27.17;23.10;;;3.70;99.90;;;;;;4956686;28;20452;-76
2020/12/08 10:48:03;;;;;;;26.37;23.10;;;3.70;99.90;;;;;;4971609;28;20492;-76
2020/12/08 10:50:29;;;;;;;29.17;23.80;;;3.60;99.90;;;;;;4977896;28;20515;-76
2020/12/08 10:52:56;;;;;;;27.23;23.40;;;3.60;99.90;;;;;;4974321;28;20451;-77
2020/12/08 10:55:24;;;;;;;26.80;23.13;;;3.60;99.90;;;;;;4956532;28;21035;-78
2020/12/08 10:57:51;;;;;;;29.10;22.80;;;3.70;99.90;;;;;;4971494;28;20447;-77
2020/12/08 11:00:17;;;;;;;27.27;23.30;;;3.70;99.90;;;;;;4957276;28;20563;-75
2020/12/08 11:02:44;;;;;;;26.80;23.90;;;3.70;99.90;;;;;;4975028;28;20477;-76
2020/12/08 11:05:10;;;;;;;26.47;23.27;;;3.70;99.90;;;;;;4973645;28;20832;-77
2020/12/08 11:07:36;;;;;;;27.60;23.60;;;3.80;99.90;;;;;;4973758;28;20444;-76
2020/12/08 11:10:04;;;;;;;28.20;22.97;;;3.80;99.90;;;;;;4973015;28;20499;-77
2020/12/08 11:12:31;;;;;;;29.03;25.43;;;3.80;99.90;;;;;;4956732;28;20452;-76
2020/12/08 11:14:57;;;;;;;29.57;24.63;;;3.80;99.90;;;;;;4956986;28;20453;-77
2020/12/08 11:17:23;;;;;;;28.47;25.30;;;3.80;99.90;;;;;;4952745;28;20453;-77
2020/12/08 11:19:50;;;;;;;27.47;24.50;;;3.80;99.90;;;;;;4946899;28;20515;-76
2020/12/08 11:22:17;;;;;;;28.53;23.63;;;3.80;99.90;;;;;;4942541;28;20967;-77
2020/12/08 11:24:43;;;;;;;29.10;23.77;;;3.90;99.90;;;;;;4973158;28;20503;-76
2020/12/08 11:27:15;;;;;;;30.03;23.67;;;4.00;99.90;;;;;;4973570;28;20441;-77
2020/12/08 11:29:42;;;;;;;30.00;24.33;;;4.10;99.90;;;;;;4973045;28;20551;-77
2020/12/08 11:32:08;;;;;;;26.83;21.97;;;4.30;99.90;;;;;;4973153;28;20460;-77
2020/12/08 11:34:34;;;;;;;26.57;23.20;;;4.40;99.90;;;;;;4950205;29;20500;-77
2020/12/08 11:37:00;;;;;;;26.67;23.43;;;4.40;99.90;;;;;;4966416;28;20538;-77
2020/12/08 11:39:27;;;;;;;30.40;24.87;;;4.40;99.90;;;;;;4937645;28;20503;-77
2020/12/08 11:41:53;;;;;;;27.13;23.63;;;4.50;99.90;;;;;;4948688;28;21148;-78
2020/12/08 11:44:20;;;;;;;30.97;23.60;;;4.60;99.90;;;;;;4940134;28;20462;-77
2020/12/08 11:46:50;;;;;;;28.83;24.30;;;4.60;99.90;;;;;;4943501;28;20460;-77
2020/12/08 11:49:17;;;;;;;25.73;22.33;;;4.70;99.90;;;;;;4967862;28;20485;-77
2020/12/08 11:51:43;;;;;;;29.87;25.00;;;4.70;99.90;;;;;;4949331;29;20448;-77
2020/12/08 11:54:10;;;;;;;28.60;24.03;;;4.60;99.90;;;;;;4967445;28;20441;-76
2020/12/08 11:56:36;;;;;;;27.83;24.03;;;4.60;99.90;;;;;;4957324;28;20511;-77
2020/12/08 11:59:02;;;;;;;26.07;22.87;;;4.60;99.90;;;;;;4956871;28;20484;-78
2020/12/08 12:01:30;;;;;;;28.97;24.60;;;4.60;99.90;;;;;;4938704;28;20951;-77
2020/12/08 12:03:56;;;;;;;28.33;24.40;;;4.70;99.90;;;;;;4946244;28;20827;-77
2020/12/08 12:06:23;;;;;;;26.50;23.57;;;4.60;99.90;;;;;;4973045;28;20440;-77
2020/12/08 12:08:49;;;;;;;27.90;22.50;;;4.60;99.90;;;;;;4952043;28;21057;-76
2020/12/08 12:11:15;;;;;;;30.23;24.13;;;4.70;99.90;;;;;;4961423;28;20445;-78
2020/12/08 12:13:42;;;;;;;29.20;24.43;;;4.60;99.90;;;;;;4944221;28;20465;-78
2020/12/08 12:16:08;;;;;;;27.77;22.97;;;4.70;99.90;;;;;;4972859;28;20488;-78
2020/12/08 12:18:35;;;;;;;25.63;22.07;;;4.60;99.90;;;;;;4974653;28;20445;-78
2020/12/08 12:21:01;;;;;;;26.80;23.80;;;4.70;99.90;;;;;;4942829;28;21094;-78
2020/12/08 12:23:29;;;;;;;25.30;22.03;;;4.60;99.90;;;;;;4948126;28;20458;-78
2020/12/08 12:25:55;;;;;;;23.57;21.20;;;4.60;99.90;;;;;;4970157;28;20441;-78
2020/12/08 12:28:21;;;;;;;23.83;21.33;;;4.70;99.90;;;;;;4951649;28;20462;-78
2020/12/08 12:30:48;;;;;;;26.73;22.67;;;4.70;99.90;;;;;;4965102;28;20449;-78
2020/12/08 12:33:14;;;;;;;24.07;21.50;;;4.60;99.90;;;;;;4942476;28;20867;-78
2020/12/08 12:35:41;;;;;;;24.77;22.13;;;4.60;99.90;;;;;;4973923;28;20528;-77
2020/12/08 12:38:08;;;;;;;23.97;21.10;;;4.60;99.90;;;;;;4944073;29;20451;-78
2020/12/08 12:40:34;;;;;;;26.47;23.47;;;4.60;99.90;;;;;;4950358;28;20462;-77